Aurora Springs, Missouri
Current Conditions -  °F | °C
As of 12:15 AM on Sunday 21 Dec 2014 (Local Time) from KAIZ Reporting Station
Overcast Overcast  
Wind Chill: 40°   Ceiling: 2300
Heat Index: 43°   Visibility: 10mi
Dew Point: 34°   Wind: 5mph
Humidity: 70%   Direction: 200°SSW
Pressure: 30.19"   Gusts: NA
Location:  38.333°N, 92.5524°W
Report Text: KAIZ 210615Z AUTO 20004KT 10SM OVC023 06/01 A3019 RMK AO1
Loading
Personal Weather Stations






























Interactive Weather Map New forecast layout! Learn more

10-Day Weather Forecast

Advertisements
Track Severe Weather on mobile